sensor_id;sensor_type;location;lat;lon;timestamp;pressure;altitude;pressure_sealevel;temperature;humidity
40946;BME280;55635;50.264;11.918;2023-02-02T00:00:11;95535.59;;;4.14;86.61
40946;BME280;55635;50.264;11.918;2023-02-02T00:02:53;95537.63;;;4.20;86.76
40946;BME280;55635;50.264;11.918;2023-02-02T00:05:33;95534.63;;;4.15;86.36
40946;BME280;55635;50.264;11.918;2023-02-02T00:08:16;95535.16;;;4.36;86.00
40946;BME280;55635;50.264;11.918;2023-02-02T00:10:57;95543.94;;;4.27;86.19
40946;BME280;55635;50.264;11.918;2023-02-02T00:13:38;95541.06;;;4.20;86.23
40946;BME280;55635;50.264;11.918;2023-02-02T00:19:23;95521.56;;;4.23;86.65
40946;BME280;55635;50.264;11.918;2023-02-02T00:22:05;95531.47;;;4.11;86.83
40946;BME280;55635;50.264;11.918;2023-02-02T00:24:46;95528.91;;;4.19;86.55
40946;BME280;55635;50.264;11.918;2023-02-02T00:27:27;95529.38;;;4.15;86.56
40946;BME280;55635;50.264;11.918;2023-02-02T00:30:09;95533.59;;;3.98;87.05
40946;BME280;55635;50.264;11.918;2023-02-02T00:32:50;95521.25;;;4.08;86.64
40946;BME280;55635;50.264;11.918;2023-02-02T00:35:32;95534.63;;;4.15;86.21
40946;BME280;55635;50.264;11.918;2023-02-02T00:38:13;95533.78;;;4.14;86.05
40946;BME280;55635;50.264;11.918;2023-02-02T00:40:54;95544.03;;;4.08;86.74
40946;BME280;55635;50.264;11.918;2023-02-02T00:43:35;95528.22;;;4.00;87.32
40946;BME280;55635;50.264;11.918;2023-02-02T00:46:18;95530.69;;;4.01;87.37
40946;BME280;55635;50.264;11.918;2023-02-02T00:48:59;95544.63;;;4.02;87.25
40946;BME280;55635;50.264;11.918;2023-02-02T00:51:40;95546.59;;;4.00;87.72
40946;BME280;55635;50.264;11.918;2023-02-02T00:54:21;95543.81;;;4.01;88.02
40946;BME280;55635;50.264;11.918;2023-02-02T00:57:02;95547.78;;;4.05;87.60
40946;BME280;55635;50.264;11.918;2023-02-02T00:59:43;95550.53;;;4.04;87.88
40946;BME280;55635;50.264;11.918;2023-02-02T01:02:24;95549.63;;;3.95;87.88
40946;BME280;55635;50.264;11.918;2023-02-02T01:05:05;95541.78;;;4.13;86.95
40946;BME280;55635;50.264;11.918;2023-02-02T01:07:47;95551.63;;;4.11;87.08
40946;BME280;55635;50.264;11.918;2023-02-02T01:10:29;95555.94;;;4.02;86.83
40946;BME280;55635;50.264;11.918;2023-02-02T01:13:10;95556.84;;;3.93;87.98
40946;BME280;55635;50.264;11.918;2023-02-02T01:15:59;95566.97;;;4.06;87.84
40946;BME280;55635;50.264;11.918;2023-02-02T01:18:40;95565.47;;;4.03;87.47
40946;BME280;55635;50.264;11.918;2023-02-02T01:21:21;95563.66;;;4.04;87.57
40946;BME280;55635;50.264;11.918;2023-02-02T01:24:03;95571.41;;;4.05;87.50
40946;BME280;55635;50.264;11.918;2023-02-02T01:26:43;95557.97;;;3.91;88.26
40946;BME280;55635;50.264;11.918;2023-02-02T01:29:24;95557.22;;;3.98;87.91
40946;BME280;55635;50.264;11.918;2023-02-02T01:32:05;95557.22;;;3.98;88.14
40946;BME280;55635;50.264;11.918;2023-02-02T01:34:46;95566.56;;;4.01;87.90
40946;BME280;55635;50.264;11.918;2023-02-02T01:37:27;95557.66;;;3.94;88.35
40946;BME280;55635;50.264;11.918;2023-02-02T01:40:09;95558.09;;;3.89;88.49
40946;BME280;55635;50.264;11.918;2023-02-02T01:42:50;95562.91;;;3.94;88.40
40946;BME280;55635;50.264;11.918;2023-02-02T01:45:31;95566.81;;;4.07;87.82
40946;BME280;55635;50.264;11.918;2023-02-02T01:48:12;95562.28;;;4.09;87.07
40946;BME280;55635;50.264;11.918;2023-02-02T01:50:59;95563.47;;;4.15;87.25
40946;BME280;55635;50.264;11.918;2023-02-02T01:53:43;95554.78;;;4.14;87.36
40946;BME280;55635;50.264;11.918;2023-02-02T01:56:30;95550.91;;;4.18;87.26
40946;BME280;55635;50.264;11.918;2023-02-02T01:59:13;95551.94;;;4.25;86.31
40946;BME280;55635;50.264;11.918;2023-02-02T02:01:58;95559.72;;;4.17;85.82
40946;BME280;55635;50.264;11.918;2023-02-02T02:04:40;95565.03;;;4.08;86.86
40946;BME280;55635;50.264;11.918;2023-02-02T02:07:22;95562.72;;;4.22;85.61
40946;BME280;55635;50.264;11.918;2023-02-02T02:10:05;95569.06;;;4.02;86.68
40946;BME280;55635;50.264;11.918;2023-02-02T02:12:47;95565.53;;;3.94;87.05
40946;BME280;55635;50.264;11.918;2023-02-02T02:15:36;95572.81;;;4.00;87.20
40946;BME280;55635;50.264;11.918;2023-02-02T02:26:42;95570.88;;;4.02;86.99
40946;BME280;55635;50.264;11.918;2023-02-02T02:36:01;95577.81;;;4.20;85.44
40946;BME280;55635;50.264;11.918;2023-02-02T02:39:18;95579.50;;;4.12;84.89
40946;BME280;55635;50.264;11.918;2023-02-02T02:42:08;95575.97;;;4.03;85.65
40946;BME280;55635;50.264;11.918;2023-02-02T02:44:54;95581.59;;;4.08;85.26
40946;BME280;55635;50.264;11.918;2023-02-02T02:47:36;95587.25;;;4.04;85.50
40946;BME280;55635;50.264;11.918;2023-02-02T02:50:20;95591.63;;;3.85;85.58
40946;BME280;55635;50.264;11.918;2023-02-02T02:53:14;95571.09;;;3.81;86.66
40946;BME280;55635;50.264;11.918;2023-02-02T02:56:18;95593.34;;;3.77;87.26
40946;BME280;55635;50.264;11.918;2023-02-02T03:00:17;95582.75;;;3.69;86.93
40946;BME280;55635;50.264;11.918;2023-02-02T03:08:43;95590.00;;;3.84;85.90
40946;BME280;55635;50.264;11.918;2023-02-02T03:11:26;95590.06;;;3.65;86.63
40946;BME280;55635;50.264;11.918;2023-02-02T03:14:07;95576.72;;;3.59;86.28
40946;BME280;55635;50.264;11.918;2023-02-02T03:16:52;95592.56;;;3.67;86.46
40946;BME280;55635;50.264;11.918;2023-02-02T03:19:33;95596.97;;;3.66;86.60
40946;BME280;55635;50.264;11.918;2023-02-02T03:22:14;95596.41;;;3.72;86.13
40946;BME280;55635;50.264;11.918;2023-02-02T03:24:55;95582.56;;;3.80;85.89
40946;BME280;55635;50.264;11.918;2023-02-02T03:27:37;95590.72;;;3.77;85.55
40946;BME280;55635;50.264;11.918;2023-02-02T03:30:19;95585.78;;;3.64;86.63
40946;BME280;55635;50.264;11.918;2023-02-02T03:33:02;95581.25;;;3.66;86.23
40946;BME280;55635;50.264;11.918;2023-02-02T03:35:43;95561.66;;;3.61;87.04
40946;BME280;55635;50.264;11.918;2023-02-02T03:38:24;95576.19;;;3.46;86.68
40946;BME280;55635;50.264;11.918;2023-02-02T03:41:06;95583.47;;;3.61;86.49
40946;BME280;55635;50.264;11.918;2023-02-02T03:43:47;95577.22;;;3.35;86.79
40946;BME280;55635;50.264;11.918;2023-02-02T03:46:27;95583.72;;;3.68;85.87
40946;BME280;55635;50.264;11.918;2023-02-02T03:49:08;95586.50;;;3.66;85.90
40946;BME280;55635;50.264;11.918;2023-02-02T03:51:50;95585.41;;;3.59;86.39
40946;BME280;55635;50.264;11.918;2023-02-02T03:54:31;95587.63;;;3.54;86.08
40946;BME280;55635;50.264;11.918;2023-02-02T03:57:17;95603.19;;;3.65;85.98
40946;BME280;55635;50.264;11.918;2023-02-02T03:59:58;95606.06;;;3.72;85.86
40946;BME280;55635;50.264;11.918;2023-02-02T04:02:39;95599.88;;;3.63;85.32
40946;BME280;55635;50.264;11.918;2023-02-02T04:05:20;95605.22;;;3.71;85.36
40946;BME280;55635;50.264;11.918;2023-02-02T04:08:01;95621.91;;;3.70;85.52
40946;BME280;55635;50.264;11.918;2023-02-02T04:10:41;95617.09;;;3.75;85.08
40946;BME280;55635;50.264;11.918;2023-02-02T04:13:22;95608.53;;;3.73;84.47
40946;BME280;55635;50.264;11.918;2023-02-02T04:16:04;95620.41;;;3.68;84.38
40946;BME280;55635;50.264;11.918;2023-02-02T04:18:45;95619.72;;;3.75;84.10
40946;BME280;55635;50.264;11.918;2023-02-02T04:21:26;95627.34;;;3.59;84.16
40946;BME280;55635;50.264;11.918;2023-02-02T04:24:10;95632.97;;;3.64;83.78
40946;BME280;55635;50.264;11.918;2023-02-02T04:26:51;95638.31;;;3.82;83.00
40946;BME280;55635;50.264;11.918;2023-02-02T04:29:32;95636.09;;;3.87;82.30
40946;BME280;55635;50.264;11.918;2023-02-02T04:32:15;95640.22;;;3.90;82.11
40946;BME280;55635;50.264;11.918;2023-02-02T04:34:56;95642.94;;;3.98;81.39
40946;BME280;55635;50.264;11.918;2023-02-02T04:37:37;95638.72;;;3.87;81.75
40946;BME280;55635;50.264;11.918;2023-02-02T04:40:18;95641.63;;;3.84;81.10
40946;BME280;55635;50.264;11.918;2023-02-02T04:42:59;95646.47;;;3.79;80.89
40946;BME280;55635;50.264;11.918;2023-02-02T04:45:40;95655.38;;;3.96;80.03
40946;BME280;55635;50.264;11.918;2023-02-02T04:48:21;95658.94;;;3.95;79.87
40946;BME280;55635;50.264;11.918;2023-02-02T04:51:12;95665.19;;;3.94;79.74
40946;BME280;55635;50.264;11.918;2023-02-02T04:53:53;95663.44;;;3.84;79.48
40946;BME280;55635;50.264;11.918;2023-02-02T04:56:35;95663.84;;;3.80;79.61
40946;BME280;55635;50.264;11.918;2023-02-02T04:59:15;95678.47;;;3.82;79.13
40946;BME280;55635;50.264;11.918;2023-02-02T05:02:01;95679.03;;;3.76;79.50
40946;BME280;55635;50.264;11.918;2023-02-02T05:04:42;95689.00;;;3.73;79.60
40946;BME280;55635;50.264;11.918;2023-02-02T05:07:23;95687.16;;;3.73;79.69
40946;BME280;55635;50.264;11.918;2023-02-02T05:10:04;95693.78;;;3.87;79.37
40946;BME280;55635;50.264;11.918;2023-02-02T05:12:46;95685.47;;;3.92;78.84
40946;BME280;55635;50.264;11.918;2023-02-02T05:15:27;95697.81;;;3.81;79.23
40946;BME280;55635;50.264;11.918;2023-02-02T05:18:13;95693.41;;;3.72;80.94
40946;BME280;55635;50.264;11.918;2023-02-02T05:20:54;95706.38;;;3.64;81.33
40946;BME280;55635;50.264;11.918;2023-02-02T05:23:35;95701.97;;;3.55;81.94
40946;BME280;55635;50.264;11.918;2023-02-02T05:26:21;95700.06;;;3.57;81.85
40946;BME280;55635;50.264;11.918;2023-02-02T05:29:03;95708.44;;;3.61;82.07
40946;BME280;55635;50.264;11.918;2023-02-02T05:31:44;95715.63;;;3.68;82.59
40946;BME280;55635;50.264;11.918;2023-02-02T05:34:25;95709.00;;;3.64;83.21
40946;BME280;55635;50.264;11.918;2023-02-02T05:37:06;95702.41;;;3.60;83.95
40946;BME280;55635;50.264;11.918;2023-02-02T05:39:47;95710.81;;;3.54;83.89
40946;BME280;55635;50.264;11.918;2023-02-02T05:42:29;95708.22;;;3.54;83.22
40946;BME280;55635;50.264;11.918;2023-02-02T05:45:10;95718.13;;;3.60;83.83
40946;BME280;55635;50.264;11.918;2023-02-02T05:47:55;95717.31;;;3.50;83.80
40946;BME280;55635;50.264;11.918;2023-02-02T05:50:35;95720.31;;;3.46;84.83
40946;BME280;55635;50.264;11.918;2023-02-02T05:53:18;95712.03;;;3.69;83.50
40946;BME280;55635;50.264;11.918;2023-02-02T05:55:59;95721.97;;;3.56;83.81
40946;BME280;55635;50.264;11.918;2023-02-02T06:01:24;95716.06;;;3.54;83.88
40946;BME280;55635;50.264;11.918;2023-02-02T06:04:05;95713.00;;;3.59;83.42
40946;BME280;55635;50.264;11.918;2023-02-02T06:06:46;95716.84;;;3.64;83.19
40946;BME280;55635;50.264;11.918;2023-02-02T06:09:27;95689.97;;;3.53;82.83
40946;BME280;55635;50.264;11.918;2023-02-02T06:12:08;95722.25;;;3.72;83.03
40946;BME280;55635;50.264;11.918;2023-02-02T06:14:49;95715.63;;;3.68;82.37
40946;BME280;55635;50.264;11.918;2023-02-02T06:17:30;95709.97;;;3.63;83.10
40946;BME280;55635;50.264;11.918;2023-02-02T06:20:11;95708.03;;;3.56;83.47
40946;BME280;55635;50.264;11.918;2023-02-02T06:22:52;95725.00;;;3.61;83.78
40946;BME280;55635;50.264;11.918;2023-02-02T06:25:33;95719.19;;;3.67;83.56
40946;BME280;55635;50.264;11.918;2023-02-02T06:28:15;95704.03;;;3.61;83.51
40946;BME280;55635;50.264;11.918;2023-02-02T06:30:55;95717.69;;;3.74;83.70
40946;BME280;55635;50.264;11.918;2023-02-02T06:33:37;95712.88;;;3.60;84.05
40946;BME280;55635;50.264;11.918;2023-02-02T06:36:18;95705.97;;;3.59;83.62
40946;BME280;55635;50.264;11.918;2023-02-02T06:38:59;95709.81;;;3.65;83.61
40946;BME280;55635;50.264;11.918;2023-02-02T06:41:41;95715.91;;;3.65;83.85
40946;BME280;55635;50.264;11.918;2023-02-02T06:44:26;95704.03;;;3.61;84.12
40946;BME280;55635;50.264;11.918;2023-02-02T06:47:07;95716.28;;;3.70;84.56
40946;BME280;55635;50.264;11.918;2023-02-02T06:49:48;95713.53;;;3.72;84.37
40946;BME280;55635;50.264;11.918;2023-02-02T06:52:29;95716.69;;;3.85;83.71
40946;BME280;55635;50.264;11.918;2023-02-02T06:55:09;95724.97;;;3.90;83.70
40946;BME280;55635;50.264;11.918;2023-02-02T06:57:56;95719.97;;;3.97;84.17
40946;BME280;55635;50.264;11.918;2023-02-02T07:00:37;95719.97;;;3.97;84.29
40946;BME280;55635;50.264;11.918;2023-02-02T07:03:20;95721.91;;;3.95;84.33
40946;BME280;55635;50.264;11.918;2023-02-02T07:06:19;95727.63;;;4.17;83.74
40946;BME280;55635;50.264;11.918;2023-02-02T07:09:01;95718.56;;;4.12;84.01
40946;BME280;55635;50.264;11.918;2023-02-02T07:11:41;95730.41;;;4.16;83.84
40946;BME280;55635;50.264;11.918;2023-02-02T07:14:22;95720.00;;;3.87;84.84
40946;BME280;55635;50.264;11.918;2023-02-02T07:17:03;95731.94;;;4.09;84.88
40946;BME280;55635;50.264;11.918;2023-02-02T07:19:44;95729.63;;;4.06;84.67
40946;BME280;55635;50.264;11.918;2023-02-02T07:22:25;95737.88;;;4.11;85.02
40946;BME280;55635;50.264;11.918;2023-02-02T07:25:07;95727.13;;;4.04;84.99
40946;BME280;55635;50.264;11.918;2023-02-02T07:27:53;95745.34;;;4.15;84.77
40946;BME280;55635;50.264;11.918;2023-02-02T07:30:33;95739.53;;;4.12;84.78
40946;BME280;55635;50.264;11.918;2023-02-02T07:33:14;95745.47;;;4.04;85.28
40946;BME280;55635;50.264;11.918;2023-02-02T07:35:55;95728.06;;;4.13;85.03
40946;BME280;55635;50.264;11.918;2023-02-02T07:38:36;95735.69;;;4.06;85.81
40946;BME280;55635;50.264;11.918;2023-02-02T07:41:17;95735.91;;;4.22;85.30
40946;BME280;55635;50.264;11.918;2023-02-02T07:43:58;95733.22;;;4.42;84.26
40946;BME280;55635;50.264;11.918;2023-02-02T07:46:43;95740.00;;;4.34;84.79
40946;BME280;55635;50.264;11.918;2023-02-02T07:49:25;95736.94;;;4.39;85.13
40946;BME280;55635;50.264;11.918;2023-02-02T07:52:05;95747.53;;;4.47;84.92
40946;BME280;55635;50.264;11.918;2023-02-02T07:54:46;95736.38;;;4.45;84.13
40946;BME280;55635;50.264;11.918;2023-02-02T07:57:27;95741.59;;;4.55;84.38
40946;BME280;55635;50.264;11.918;2023-02-02T08:00:09;95739.97;;;4.71;83.74
40946;BME280;55635;50.264;11.918;2023-02-02T08:02:52;95750.47;;;4.71;83.37
40946;BME280;55635;50.264;11.918;2023-02-02T08:05:33;95744.84;;;4.66;83.46
40946;BME280;55635;50.264;11.918;2023-02-02T08:08:14;95745.16;;;4.81;82.72
40946;BME280;55635;50.264;11.918;2023-02-02T08:10:55;95748.13;;;4.68;83.31
40946;BME280;55635;50.264;11.918;2023-02-02T08:13:37;95766.34;;;4.79;82.67
40946;BME280;55635;50.264;11.918;2023-02-02T08:16:19;95745.78;;;4.92;82.70
40946;BME280;55635;50.264;11.918;2023-02-02T08:19:00;95757.00;;;4.94;82.30
40946;BME280;55635;50.264;11.918;2023-02-02T08:21:41;95757.38;;;5.00;82.66
40946;BME280;55635;50.264;11.918;2023-02-02T08:24:22;95750.03;;;5.21;81.66
40946;BME280;55635;50.264;11.918;2023-02-02T08:27:03;95752.91;;;4.82;82.66
40946;BME280;55635;50.264;11.918;2023-02-02T08:29:44;95757.59;;;4.88;82.33
40946;BME280;55635;50.264;11.918;2023-02-02T08:32:25;95763.03;;;5.40;81.38
40946;BME280;55635;50.264;11.918;2023-02-02T08:35:07;95775.06;;;5.42;80.96
40946;BME280;55635;50.264;11.918;2023-02-02T08:37:49;95763.72;;;5.24;80.81
40946;BME280;55635;50.264;11.918;2023-02-02T08:40:30;95785.44;;;5.44;80.42
40946;BME280;55635;50.264;11.918;2023-02-02T08:43:11;95783.78;;;5.43;80.21
40946;BME280;55635;50.264;11.918;2023-02-02T08:45:52;95785.50;;;5.52;79.56
40946;BME280;55635;50.264;11.918;2023-02-02T08:48:34;95777.69;;;5.42;79.38
40946;BME280;55635;50.264;11.918;2023-02-02T08:51:17;95790.00;;;5.42;79.38
40946;BME280;55635;50.264;11.918;2023-02-02T08:53:59;95796.75;;;5.27;79.10
40946;BME280;55635;50.264;11.918;2023-02-02T08:56:39;95780.72;;;5.03;79.68
40946;BME280;55635;50.264;11.918;2023-02-02T08:59:20;95798.16;;;5.04;79.33
40946;BME280;55635;50.264;11.918;2023-02-02T09:02:02;95801.94;;;4.91;78.92
40946;BME280;55635;50.264;11.918;2023-02-02T09:04:43;95804.22;;;4.77;78.60
40946;BME280;55635;50.264;11.918;2023-02-02T09:07:25;95816.00;;;5.00;78.24
40946;BME280;55635;50.264;11.918;2023-02-02T09:10:06;95809.91;;;5.00;77.32
40946;BME280;55635;50.264;11.918;2023-02-02T09:12:47;95823.72;;;5.02;77.17
40946;BME280;55635;50.264;11.918;2023-02-02T09:15:28;95809.53;;;4.94;77.30
40946;BME280;55635;50.264;11.918;2023-02-02T09:18:09;95819.84;;;5.06;76.68
40946;BME280;55635;50.264;11.918;2023-02-02T09:20:50;95834.72;;;5.15;76.29
40946;BME280;55635;50.264;11.918;2023-02-02T09:23:33;95832.59;;;5.01;76.75
40946;BME280;55635;50.264;11.918;2023-02-02T09:26:24;95832.16;;;4.68;78.10
40946;BME280;55635;50.264;11.918;2023-02-02T09:29:09;95840.50;;;4.54;78.73
40946;BME280;55635;50.264;11.918;2023-02-02T09:31:50;95844.19;;;4.71;79.22
40946;BME280;55635;50.264;11.918;2023-02-02T09:34:31;95849.91;;;4.47;79.20
40946;BME280;55635;50.264;11.918;2023-02-02T09:37:12;95855.88;;;4.49;78.97
40946;BME280;55635;50.264;11.918;2023-02-02T09:39:53;95874.19;;;4.68;79.12
40946;BME280;55635;50.264;11.918;2023-02-02T09:43:35;95885.66;;;4.67;79.75
40946;BME280;55635;50.264;11.918;2023-02-02T09:53:22;95890.47;;;4.72;81.53
40946;BME280;55635;50.264;11.918;2023-02-02T09:56:13;95889.16;;;4.49;82.75
40946;BME280;55635;50.264;11.918;2023-02-02T09:59:00;95878.66;;;4.58;82.28
40946;BME280;55635;50.264;11.918;2023-02-02T10:01:43;95889.13;;;4.68;82.52
40946;BME280;55635;50.264;11.918;2023-02-02T10:04:39;95898.72;;;4.86;82.35
40946;BME280;55635;50.264;11.918;2023-02-02T10:07:36;95899.28;;;4.80;82.12
40946;BME280;55635;50.264;11.918;2023-02-02T10:10:34;95905.16;;;5.02;81.66
40946;BME280;55635;50.264;11.918;2023-02-02T10:13:32;95902.31;;;4.95;81.56
40946;BME280;55635;50.264;11.918;2023-02-02T10:16:18;95908.81;;;5.28;80.99
40946;BME280;55635;50.264;11.918;2023-02-02T10:19:10;95894.03;;;5.44;80.28
40946;BME280;55635;50.264;11.918;2023-02-02T10:22:18;95880.97;;;5.35;79.80
40946;BME280;55635;50.264;11.918;2023-02-02T10:25:00;95893.31;;;5.52;79.73
40946;BME280;55635;50.264;11.918;2023-02-02T10:27:56;95901.94;;;5.72;79.15
40946;BME280;55635;50.264;11.918;2023-02-02T10:30:52;95892.97;;;5.82;78.66
40946;BME280;55635;50.264;11.918;2023-02-02T10:33:41;95912.19;;;6.10;78.54
40946;BME280;55635;50.264;11.918;2023-02-02T10:46:03;95901.75;;;6.62;75.98
40946;BME280;55635;50.264;11.918;2023-02-02T10:48:47;95904.19;;;6.81;75.68
40946;BME280;55635;50.264;11.918;2023-02-02T10:51:28;95897.34;;;6.70;75.50
40946;BME280;55635;50.264;11.918;2023-02-02T10:57:51;95909.22;;;6.66;75.53
40946;BME280;55635;50.264;11.918;2023-02-02T11:03:31;95909.66;;;6.62;76.13
40946;BME280;55635;50.264;11.918;2023-02-02T11:06:15;95915.50;;;6.73;75.84
40946;BME280;55635;50.264;11.918;2023-02-02T11:09:23;95919.22;;;6.88;75.99
40946;BME280;55635;50.264;11.918;2023-02-02T11:15:28;95912.00;;;6.90;74.82
40946;BME280;55635;50.264;11.918;2023-02-02T11:18:28;95911.94;;;7.08;75.34
40946;BME280;55635;50.264;11.918;2023-02-02T11:21:35;95919.44;;;7.29;74.58
40946;BME280;55635;50.264;11.918;2023-02-02T11:24:26;95921.19;;;7.12;74.94
40946;BME280;55635;50.264;11.918;2023-02-02T11:27:24;95919.22;;;7.14;74.55
40946;BME280;55635;50.264;11.918;2023-02-02T11:30:33;95918.88;;;7.09;74.65
40946;BME280;55635;50.264;11.918;2023-02-02T11:33:32;95904.47;;;7.03;74.77
40946;BME280;55635;50.264;11.918;2023-02-02T11:36:19;95902.78;;;6.94;74.87
40946;BME280;55635;50.264;11.918;2023-02-02T11:39:19;95922.47;;;7.08;75.35
40946;BME280;55635;50.264;11.918;2023-02-02T11:42:17;95905.03;;;6.81;75.45
40946;BME280;55635;50.264;11.918;2023-02-02T11:44:59;95913.78;;;6.82;75.37
40946;BME280;55635;50.264;11.918;2023-02-02T11:47:41;95923.72;;;6.96;75.17
40946;BME280;55635;50.264;11.918;2023-02-02T11:50:26;95922.94;;;7.03;75.17
40946;BME280;55635;50.264;11.918;2023-02-02T11:53:35;95925.00;;;7.18;74.64
40946;BME280;55635;50.264;11.918;2023-02-02T11:56:22;95918.13;;;7.25;74.65
40946;BME280;55635;50.264;11.918;2023-02-02T11:59:05;95925.97;;;7.17;74.63
40946;BME280;55635;50.264;11.918;2023-02-02T12:02:20;95932.00;;;7.35;74.33
40946;BME280;55635;50.264;11.918;2023-02-02T12:07:52;95914.56;;;7.34;73.64
40946;BME280;55635;50.264;11.918;2023-02-02T12:11:02;95934.06;;;7.49;74.28
40946;BME280;55635;50.264;11.918;2023-02-02T12:14:01;95931.13;;;7.18;74.20
40946;BME280;55635;50.264;11.918;2023-02-02T12:17:07;95944.53;;;7.33;74.59
40946;BME280;55635;50.264;11.918;2023-02-02T12:38:19;95950.84;;;7.14;75.04
40946;BME280;55635;50.264;11.918;2023-02-02T12:44:46;95930.53;;;7.40;74.38
40946;BME280;55635;50.264;11.918;2023-02-02T12:47:43;95954.78;;;7.36;74.62
40946;BME280;55635;50.264;11.918;2023-02-02T12:50:54;95940.75;;;7.09;74.27
40946;BME280;55635;50.264;11.918;2023-02-02T13:03:29;95956.81;;;6.29;77.30
40946;BME280;55635;50.264;11.918;2023-02-02T13:06:33;95966.03;;;6.33;77.74
40946;BME280;55635;50.264;11.918;2023-02-02T13:09:29;95970.41;;;6.25;77.74
40946;BME280;55635;50.264;11.918;2023-02-02T13:12:12;95977.41;;;6.16;78.28
40946;BME280;55635;50.264;11.918;2023-02-02T13:15:00;95979.44;;;6.05;78.45
40946;BME280;55635;50.264;11.918;2023-02-02T13:17:56;95984.16;;;6.19;78.91
40946;BME280;55635;50.264;11.918;2023-02-02T13:20:48;95974.69;;;6.26;78.13
40946;BME280;55635;50.264;11.918;2023-02-02T13:23:41;95975.78;;;6.06;77.88
40946;BME280;55635;50.264;11.918;2023-02-02T13:26:31;95978.13;;;5.81;78.81
40946;BME280;55635;50.264;11.918;2023-02-02T13:29:37;95969.09;;;5.93;78.50
40946;BME280;55635;50.264;11.918;2023-02-02T13:32:35;95985.47;;;5.87;79.11
40946;BME280;55635;50.264;11.918;2023-02-02T13:35:53;95988.78;;;5.89;78.89
40946;BME280;55635;50.264;11.918;2023-02-02T13:38:34;95993.34;;;5.60;79.32
40946;BME280;55635;50.264;11.918;2023-02-02T13:41:21;95986.22;;;5.43;80.07
40946;BME280;55635;50.264;11.918;2023-02-02T13:44:30;95968.19;;;5.48;79.79
40946;BME280;55635;50.264;11.918;2023-02-02T13:47:23;96006.69;;;5.49;80.19
40946;BME280;55635;50.264;11.918;2023-02-02T13:50:14;95998.59;;;5.60;80.45
40946;BME280;55635;50.264;11.918;2023-02-02T14:00:02;96020.44;;;5.24;81.17
40946;BME280;55635;50.264;11.918;2023-02-02T14:03:00;96005.69;;;5.23;81.09
40946;BME280;55635;50.264;11.918;2023-02-02T14:06:17;96023.06;;;5.24;81.24
40946;BME280;55635;50.264;11.918;2023-02-02T14:09:03;96019.97;;;4.91;82.10
40946;BME280;55635;50.264;11.918;2023-02-02T14:11:58;96017.84;;;5.14;81.83
40946;BME280;55635;50.264;11.918;2023-02-02T14:14:45;96014.72;;;5.01;81.41
40946;BME280;55635;50.264;11.918;2023-02-02T14:20:46;96011.00;;;4.84;81.41
40946;BME280;55635;50.264;11.918;2023-02-02T14:23:53;96020.66;;;4.93;82.35
40946;BME280;55635;50.264;11.918;2023-02-02T14:26:49;96011.81;;;4.85;82.64
40946;BME280;55635;50.264;11.918;2023-02-02T14:45:15;96030.50;;;4.63;82.49
40946;BME280;55635;50.264;11.918;2023-02-02T14:50:52;96039.78;;;4.67;82.12
40946;BME280;55635;50.264;11.918;2023-02-02T14:53:36;96019.72;;;4.56;82.44
40946;BME280;55635;50.264;11.918;2023-02-02T14:56:21;96042.13;;;4.70;81.98
40946;BME280;55635;50.264;11.918;2023-02-02T15:08:26;96079.16;;;4.76;81.15
40946;BME280;55635;50.264;11.918;2023-02-02T15:11:07;96083.56;;;5.05;80.21
40946;BME280;55635;50.264;11.918;2023-02-02T15:14:14;96086.59;;;5.19;79.26
40946;BME280;55635;50.264;11.918;2023-02-02T15:17:00;96098.19;;;5.26;78.86
40946;BME280;55635;50.264;11.918;2023-02-02T15:19:47;96096.69;;;5.14;78.72
40946;BME280;55635;50.264;11.918;2023-02-02T15:22:46;96101.91;;;5.43;77.82
40946;BME280;55635;50.264;11.918;2023-02-02T15:34:44;96108.09;;;5.61;77.42
40946;BME280;55635;50.264;11.918;2023-02-02T15:37:35;96110.47;;;5.45;78.08
40946;BME280;55635;50.264;11.918;2023-02-02T15:40:23;96115.72;;;5.45;77.95
40946;BME280;55635;50.264;11.918;2023-02-02T15:43:06;96124.16;;;5.48;78.03
40946;BME280;55635;50.264;11.918;2023-02-02T15:46:10;96131.25;;;5.38;77.68
40946;BME280;55635;50.264;11.918;2023-02-02T15:52:10;96142.31;;;5.32;77.69
40946;BME280;55635;50.264;11.918;2023-02-02T15:54:55;96141.91;;;5.27;77.98
40946;BME280;55635;50.264;11.918;2023-02-02T15:57:37;96133.63;;;5.13;78.22
40946;BME280;55635;50.264;11.918;2023-02-02T16:00:33;96159.91;;;5.32;78.26
40946;BME280;55635;50.264;11.918;2023-02-02T16:03:21;96171.66;;;5.28;78.03
40946;BME280;55635;50.264;11.918;2023-02-02T16:06:05;96177.47;;;5.12;78.68
40946;BME280;55635;50.264;11.918;2023-02-02T16:08:48;96180.50;;;5.08;78.67
40946;BME280;55635;50.264;11.918;2023-02-02T16:11:29;96190.91;;;5.19;79.18
40946;BME280;55635;50.264;11.918;2023-02-02T16:14:13;96192.41;;;5.12;79.64
40946;BME280;55635;50.264;11.918;2023-02-02T16:17:26;96183.56;;;5.13;79.69
40946;BME280;55635;50.264;11.918;2023-02-02T16:20:14;96180.22;;;4.91;80.09
40946;BME280;55635;50.264;11.918;2023-02-02T16:22:58;96197.38;;;5.05;80.16
40946;BME280;55635;50.264;11.918;2023-02-02T16:25:48;96195.28;;;4.99;80.83
40946;BME280;55635;50.264;11.918;2023-02-02T16:28:30;96205.13;;;5.07;80.34
40946;BME280;55635;50.264;11.918;2023-02-02T16:31:12;96220.75;;;5.18;80.11
40946;BME280;55635;50.264;11.918;2023-02-02T16:33:54;96213.59;;;5.10;80.35
40946;BME280;55635;50.264;11.918;2023-02-02T16:36:36;96224.50;;;5.15;80.43
40946;BME280;55635;50.264;11.918;2023-02-02T16:39:22;96223.69;;;5.24;80.17
40946;BME280;55635;50.264;11.918;2023-02-02T16:42:33;96234.50;;;5.40;79.97
40946;BME280;55635;50.264;11.918;2023-02-02T16:45:34;96243.50;;;5.38;80.19
40946;BME280;55635;50.264;11.918;2023-02-02T16:54:18;96235.44;;;5.20;80.86
40946;BME280;55635;50.264;11.918;2023-02-02T16:57:02;96228.94;;;5.15;80.53
40946;BME280;55635;50.264;11.918;2023-02-02T16:59:51;96241.09;;;5.16;81.09
40946;BME280;55635;50.264;11.918;2023-02-02T17:02:37;96247.19;;;5.16;80.88